| time (UTC) | temp F | wind direction | speed knots | gust knots | rain 1hr in | rain 24hr in | rain mn in | humidity % | barometer mb |
| 20260506141102 | 79 | 171 | 4.3 | 8.7 | 0.00 | 0.00 | 0.00 | 100 | 1018.9 |
| 20260506140600 | 79 | 120 | 2.6 | 7.8 | 0.00 | 0.00 | 0.00 | 100 | 1018.9 |
| 20260506140100 | 78 | 144 | 3.5 | 7.8 | 0.00 | 0.00 | 0.00 | 100 | 1019.0 |
| 20260506135559 | 78 | 163 | 4.3 | 7.0 | 0.00 | 0.00 | 0.00 | 100 | 1018.9 |
| 20260506135059 | 79 | 110 | 1.7 | 6.1 | 0.00 | 0.00 | 0.00 | 100 | 1018.9 |
| 20260506134600 | 79 | 144 | 2.6 | 6.1 | 0.00 | 0.00 | 0.00 | 100 | 1018.9 |
| 20260506134057 | 78 | 125 | 1.7 | 6.1 | 0.00 | 0.00 | 0.00 | 100 | 1018.8 |
| 20260506133557 | 78 | 159 | 1.7 | 7.0 | 0.00 | 0.00 | 0.00 | 100 | 1018.6 |
| 20260506133111 | 78 | 136 | 3.5 | 8.7 | 0.00 | 0.00 | 0.00 | 100 | 1018.6 |
| 20260506132556 | 78 | 123 | 2.6 | 7.0 | 0.00 | 0.00 | 0.00 | 100 | 1018.7 |
| 20260506132056 | 78 | 126 | 2.6 | 7.8 | 0.00 | 0.00 | 0.00 | 100 | 1018.7 |
| 20260506131602 | 78 | 142 | 4.3 | 7.8 | 0.00 | 0.00 | 0.00 | 100 | 1018.6 |
| 20260506131056 | 78 | 142 | 2.6 | 6.1 | 0.00 | 0.00 | 0.00 | 100 | 1018.6 |
| 20260506130554 | 78 | 164 | 3.5 | 7.0 | 0.00 | 0.00 | 0.00 | 100 | 1018.6 |
| 20260506130056 | 77 | 153 | 3.5 | 7.8 | 0.00 | 0.00 | 0.00 | 100 | 1018.6 |
| 20260506125552 | 77 | 153 | 4.3 | 7.8 | 0.00 | 0.00 | 0.00 | 100 | 1018.6 |
| 20260506125052 | 78 | 108 | 1.7 | 7.8 | 0.00 | 0.00 | 0.00 | 100 | 1018.5 |
| 20260506124557 | 77 | 157 | 1.7 | 7.8 | 0.00 | 0.00 | 0.00 | 100 | 1018.5 |
| 20260506124053 | 77 | 153 | 3.5 | 8.7 | 0.00 | 0.00 | 0.00 | 100 | 1018.5 |
| 20260506123550 | 77 | 158 | 4.3 | 8.7 | 0.00 | 0.00 | 0.00 | 100 | 1018.5 |
| 20260506123051 | 77 | 159 | 2.6 | 7.0 | 0.00 | 0.00 | 0.00 | 100 | 1018.5 |
| 20260506122549 | 77 | 162 | 0.9 | 6.1 | 0.00 | 0.00 | 0.00 | 100 | 1018.5 |
| 20260506122047 | 76 | 155 | 1.7 | 7.0 | 0.00 | 0.00 | 0.00 | 100 | 1018.4 |
| 20260506121547 | 76 | 122 | 0.9 | 7.0 | 0.00 | 0.00 | 0.00 | 100 | 1018.2 |
| 20260506121047 | 76 | 159 | 2.6 | 6.1 | 0.00 | 0.00 | 0.00 | 100 | 1018.2 |
| 20260506120549 | 76 | 129 | 0.9 | 3.5 | 0.00 | 0.00 | 0.00 | 100 | 1018.3 |
| 20260506120047 | 75 | 122 | 0.0 | 3.5 | 0.00 | 0.00 | 0.00 | 100 | 1018.3 |
| 20260506115546 | 75 | 121 | 0.0 | 0.0 | 0.00 | 0.00 | 0.00 | 100 | 1018.3 |
| 20260506115046 | 74 | 121 | 0.0 | 0.0 | 0.00 | 0.00 | 0.00 | 100 | 1018.3 |
| 20260506114546 | 74 | 121 | 0.0 | 0.0 | 0.00 | 0.00 | 0.00 | 100 | 1018.3 |
| 20260506114047 | 73 | 121 | 0.0 | 0.0 | 0.00 | 0.00 | 0.00 | 100 | 1018.3 |
| 20260506113545 | 73 | 121 | 0.0 | 0.0 | 0.00 | 0.00 | 0.00 | 100 | 1018.3 |
| 20260506113045 | 73 | 121 | 0.0 | 0.0 | 0.00 | 0.00 | 0.00 | 100 | 1018.4 |
| 20260506112548 | 73 | 121 | 0.0 | 0.0 | 0.00 | 0.00 | 0.00 | 100 | 1018.4 |
| 20260506112044 | 73 | 121 | 0.0 | 0.0 | 0.00 | 0.00 | 0.00 | 100 | 1018.3 |
| 20260506111544 | 73 | 121 | 0.0 | 0.0 | 0.00 | 0.00 | 0.00 | 100 | 1018.2 |
| 20260506111044 | 73 | 121 | 0.0 | 0.0 | 0.00 | 0.00 | 0.00 | 100 | 1018.1 |
| 20260506110544 | 73 | 121 | 0.0 | 0.0 | 0.00 | 0.00 | 0.00 | 100 | 1018.1 |
| 20260506110044 | 73 | 121 | 0.0 | 0.0 | 0.00 | 0.00 | 0.00 | 100 | 1018.1 |
| 20260506105546 | 73 | 121 | 0.0 | 0.0 | 0.00 | 0.00 | 0.00 | 100 | 1018.0 |
| 20260506105046 | 73 | 121 | 0.0 | 0.0 | 0.00 | 0.00 | 0.00 | 100 | 1017.8 |
| 20260506104549 | 73 | 121 | 0.0 | 0.0 | 0.00 | 0.00 | 0.00 | 100 | 1017.7 |
| 20260506104043 | 73 | 121 | 0.0 | 0.0 | 0.00 | 0.00 | 0.00 | 100 | 1017.6 |
| 20260506103542 | 73 | 121 | 0.0 | 0.0 | 0.00 | 0.00 | 0.00 | 100 | 1017.6 |
| 20260506103042 | 73 | 121 | 0.0 | 0.0 | 0.00 | 0.00 | 0.00 | 100 | 1017.6 |
| 20260506102541 | 74 | 121 | 0.0 | 0.0 | 0.00 | 0.00 | 0.00 | 100 | 1017.6 |
| 20260506102041 | 74 | 121 | 0.0 | 0.0 | 0.00 | 0.00 | 0.00 | 100 | 1017.6 |
| 20260506101541 | 74 | 121 | 0.0 | 0.0 | 0.00 | 0.00 | 0.00 | 100 | 1017.5 |
| 20260506101040 | 74 | 121 | 0.0 | 0.0 | 0.00 | 0.00 | 0.00 | 100 | 1017.4 |
| 20260506100540 | 74 | 121 | 0.0 | 0.0 | 0.00 | 0.00 | 0.00 | 100 | 1017.4 |
| 20260506100040 | 74 | 121 | 0.0 | 0.0 | 0.00 | 0.00 | 0.00 | 100 | 1017.4 |
| 20260506095542 | 74 | 121 | 0.0 | 0.0 | 0.00 | 0.00 | 0.00 | 100 | 1017.4 |
| 20260506095042 | 74 | 121 | 0.0 | 0.0 | 0.00 | 0.00 | 0.00 | 100 | 1017.3 |
| 20260506094549 | 74 | 121 | 0.0 | 0.0 | 0.00 | 0.00 | 0.00 | 100 | 1017.4 |
| 20260506094041 | 74 | 121 | 0.0 | 0.0 | 0.00 | 0.00 | 0.00 | 100 | 1017.4 |
| 20260506093540 | 74 | 121 | 0.0 | 0.0 | 0.00 | 0.00 | 0.00 | 100 | 1017.5 |
| 20260506093040 | 74 | 121 | 0.0 | 0.0 | 0.00 | 0.00 | 0.00 | 100 | 1017.4 |
| 20260506092538 | 74 | 121 | 0.0 | 0.0 | 0.00 | 0.00 | 0.00 | 100 | 1017.4 |
| 20260506092038 | 74 | 121 | 0.0 | 0.0 | 0.00 | 0.00 | 0.00 | 100 | 1017.3 |
| 20260506091538 | 74 | 121 | 0.0 | 0.0 | 0.00 | 0.00 | 0.00 | 100 | 1017.2 |
| 20260506091039 | 74 | 121 | 0.0 | 0.0 | 0.00 | 0.00 | 0.00 | 100 | 1017.2 |
| 20260506090537 | 74 | 121 | 0.0 | 0.0 | 0.00 | 0.00 | 0.00 | 100 | 1017.2 |
| 20260506090037 | 74 | 120 | 0.0 | 0.0 | 0.00 | 0.00 | 0.00 | 100 | 1017.1 |
| 20260506085537 | 74 | 121 | 0.0 | 0.0 | 0.00 | 0.00 | 0.00 | 100 | 1017.1 |
| 20260506085037 | 74 | 120 | 0.0 | 0.0 | 0.00 | 0.00 | 0.00 | 100 | 1017.1 |
| 20260506084542 | 74 | 126 | 0.0 | 0.0 | 0.00 | 0.00 | 0.00 | 100 | 1017.1 |
| 20260506084039 | 74 | 126 | 0.0 | 0.0 | 0.00 | 0.00 | 0.00 | 100 | 1017.3 |
| 20260506083538 | 74 | 127 | 0.0 | 0.0 | 0.00 | 0.00 | 0.00 | 100 | 1017.2 |
| 20260506083035 | 74 | 125 | 0.0 | 0.0 | 0.00 | 0.00 | 0.00 | 100 | 1017.3 |
| 20260506082535 | 74 | 125 | 0.0 | 0.0 | 0.00 | 0.00 | 0.00 | 100 | 1017.3 |
| 20260506082035 | 74 | 125 | 0.0 | 0.0 | 0.00 | 0.00 | 0.00 | 100 | 1017.3 |
| 20260506081534 | 74 | 126 | 0.0 | 0.0 | 0.00 | 0.00 | 0.00 | 100 | 1017.3 |
| 20260506081034 | 75 | 126 | 0.0 | 2.6 | 0.00 | 0.00 | 0.00 | 100 | 1017.3 |
| 20260506080534 | 75 | 126 | 0.9 | 2.6 | 0.00 | 0.00 | 0.00 | 100 | 1017.3 |
| 20260506073031 | 75 | 111 | 0.9 | 5.2 | 0.00 | 0.00 | 0.00 | 100 | 1017.4 |
| 20260506072534 | 75 | 123 | 0.9 | 5.2 | 0.00 | 0.00 | 0.00 | 100 | 1017.5 |
| 20260506072030 | 75 | 141 | 1.7 | 4.3 | 0.00 | 0.00 | 0.00 | 100 | 1017.5 |
| 20260506071534 | 75 | 117 | 1.7 | 6.1 | 0.00 | 0.00 | 0.00 | 100 | 1017.4 |
| 20260506071030 | 75 | 116 | 1.7 | 6.1 | 0.00 | 0.00 | 0.00 | 100 | 1017.5 |
| 20260506070530 | 75 | 132 | 0.9 | 3.5 | 0.00 | 0.00 | 0.00 | 100 | 1017.4 |
| 20260506062027 | 75 | 114 | 1.7 | 5.2 | 0.00 | 0.00 | 0.00 | 100 | 1017.6 |
| 20260506061527 | 75 | 121 | 1.7 | 4.3 | 0.00 | 0.00 | 0.00 | 100 | 1017.6 |
| 20260506061029 | 75 | 128 | 0.9 | 4.3 | 0.00 | 0.00 | 0.00 | 100 | 1017.7 |
| 20260506060529 | 75 | 134 | 0.0 | 7.8 | 0.00 | 0.00 | 0.00 | 100 | 1017.6 |
| 20260506051020 | 76 | 114 | 3.5 | 9.6 | 0.00 | 0.00 | 0.00 | 100 | 1017.9 |
| 20260506050520 | 76 | 116 | 3.5 | 9.6 | 0.00 | 0.00 | 0.00 | 100 | 1017.9 |
| 20260506045019 | 76 | 177 | 1.7 | 6.1 | 0.00 | 0.00 | 0.00 | 100 | 1018.0 |
| 20260506044518 | 76 | 136 | 2.6 | 7.8 | 0.00 | 0.00 | 0.00 | 100 | 1018.0 |
| 20260506044017 | 76 | 152 | 2.6 | 7.8 | 0.00 | 0.00 | 0.00 | 100 | 1017.9 |
| 20260506043517 | 76 | 107 | 1.7 | 9.6 | 0.00 | 0.00 | 0.00 | 100 | 1018.0 |
| 20260506043016 | 76 | 130 | 2.6 | 9.6 | 0.00 | 0.00 | 0.00 | 100 | 1017.9 |
| 20260506042516 | 76 | 111 | 2.6 | 7.0 | 0.00 | 0.00 | 0.00 | 100 | 1018.0 |
| 20260506042016 | 76 | 119 | 0.9 | 9.6 | 0.00 | 0.00 | 0.00 | 100 | 1018.2 |
| 20260506041516 | 76 | 121 | 3.5 | 9.6 | 0.00 | 0.00 | 0.00 | 100 | 1018.1 |
| 20260506041014 | 76 | 112 | 1.7 | 7.0 | 0.00 | 0.00 | 0.00 | 100 | 1018.2 |
| 20260506040513 | 76 | 108 | 1.7 | 7.8 | 0.00 | 0.00 | 0.00 | 100 | 1018.3 |
| 20260506040013 | 76 | 122 | 2.6 | 7.8 | 0.00 | 0.00 | 0.00 | 100 | 1018.2 |
| 20260506035518 | 76 | 80 | 2.6 | 7.8 | 0.00 | 0.00 | 0.00 | 100 | 1018.3 |
| 20260506035012 | 76 | 116 | 1.7 | 7.8 | 0.00 | 0.00 | 0.00 | 100 | 1018.3 |
| 20260506034512 | 76 | 105 | 2.6 | 7.0 | 0.00 | 0.00 | 0.00 | 100 | 1018.4 |
| 20260506034011 | 76 | 84 | 2.6 | 7.0 | 0.00 | 0.00 | 0.00 | 100 | 1018.5 |
| 20260506033510 | 76 | 112 | 1.7 | 7.0 | 0.00 | 0.00 | 0.00 | 100 | 1018.4 |
| 20260506033012 | 76 | 104 | 1.7 | 7.0 | 0.00 | 0.00 | 0.00 | 100 | 1018.3 |
| 20260506032510 | 76 | 114 | 2.6 | 6.1 | 0.00 | 0.00 | 0.00 | 100 | 1018.3 |
| 20260506032012 | 76 | 110 | 2.6 | 7.0 | 0.00 | 0.00 | 0.00 | 100 | 1018.3 |
| 20260506031511 | 76 | 108 | 2.6 | 7.0 | 0.00 | 0.00 | 0.00 | 100 | 1018.4 |
| 20260506031012 | 76 | 131 | 1.7 | 7.0 | 0.00 | 0.00 | 0.00 | 100 | 1018.3 |
| 20260506030511 | 76 | 157 | 1.7 | 7.8 | 0.00 | 0.00 | 0.00 | 100 | 1018.3 |
| 20260506030019 | 76 | 96 | 2.6 | 8.7 | 0.00 | 0.00 | 0.00 | 100 | 1018.3 |
| 20260506025509 | 76 | 123 | 3.5 | 8.7 | 0.00 | 0.00 | 0.00 | 100 | 1018.2 |
| 20260506025009 | 76 | 101 | 1.7 | 6.1 | 0.00 | 0.00 | 0.00 | 100 | 1018.2 |
| 20260506024522 | 76 | 115 | 1.7 | 7.8 | 0.00 | 0.00 | 0.00 | 100 | 1018.1 |
| 20260506024009 | 76 | 109 | 3.5 | 8.7 | 0.00 | 0.00 | 0.00 | 100 | 1018.1 |
| 20260506023509 | 76 | 127 | 2.6 | 8.7 | 0.00 | 0.00 | 0.00 | 100 | 1018.0 |
| 20260506023009 | 76 | 92 | 2.6 | 7.0 | 0.00 | 0.00 | 0.00 | 100 | 1018.0 |
| 20260506022508 | 76 | 103 | 1.7 | 7.0 | 0.00 | 0.00 | 0.00 | 100 | 1018.1 |
| 20260506022008 | 76 | 99 | 2.6 | 7.0 | 0.00 | 0.00 | 0.00 | 100 | 1018.1 |
| 20260506021508 | 76 | 112 | 1.7 | 8.7 | 0.00 | 0.00 | 0.00 | 100 | 1018.0 |
| 20260506021009 | 77 | 84 | 2.6 | 8.7 | 0.00 | 0.00 | 0.00 | 100 | 1018.1 |
| 20260506020508 | 76 | 88 | 0.9 | 6.1 | 0.00 | 0.00 | 0.00 | 100 | 1017.9 |
| 20260506020009 | 77 | 149 | 1.7 | 6.1 | 0.00 | 0.00 | 0.00 | 100 | 1017.9 |
| 20260506015507 | 77 | 137 | 1.7 | 7.0 | 0.00 | 0.00 | 0.00 | 100 | 1017.8 |
| 20260506015008 | 77 | 128 | 1.7 | 7.0 | 0.00 | 0.00 | 0.00 | 100 | 1017.8 |
| 20260506014507 | 76 | 96 | 2.6 | 7.0 | 0.00 | 0.00 | 0.00 | 100 | 1017.7 |
| 20260506014007 | 77 | 153 | 1.7 | 8.7 | 0.00 | 0.00 | 0.00 | 100 | 1017.7 |
| 20260506013506 | 77 | 110 | 2.6 | 8.7 | 0.00 | 0.00 | 0.00 | 100 | 1017.6 |
| 20260506013008 | 77 | 103 | 1.7 | 6.1 | 0.00 | 0.00 | 0.00 | 100 | 1017.5 |
| 20260506012506 | 77 | 140 | 1.7 | 6.1 | 0.00 | 0.00 | 0.00 | 100 | 1017.5 |
| 20260506012006 | 77 | 54 | 1.7 | 5.2 | 0.00 | 0.00 | 0.00 | 100 | 1017.4 |
| 20260506011506 | 77 | 130 | 1.7 | 5.2 | 0.00 | 0.00 | 0.00 | 100 | 1017.3 |
| 20260506011007 | 77 | 103 | 1.7 | 6.1 | 0.00 | 0.00 | 0.00 | 100 | 1017.3 |
| 20260506010506 | 77 | 113 | 1.7 | 6.1 | 0.00 | 0.00 | 0.00 | 100 | 1017.2 |
| 20260506010006 | 77 | 102 | 1.7 | 7.8 | 0.00 | 0.00 | 0.00 | 100 | 1017.2 |
| 20260506005608 | 77 | 128 | 1.7 | 7.8 | 0.00 | 0.00 | 0.00 | 100 | 1017.1 |
| 20260506005006 | 77 | 90 | 2.6 | 7.0 | 0.00 | 0.00 | 0.00 | 100 | 1017.1 |
| 20260506004505 | 77 | 93 | 1.7 | 6.1 | 0.00 | 0.00 | 0.00 | 100 | 1017.1 |
| 20260506004005 | 77 | 101 | 1.7 | 6.1 | 0.00 | 0.00 | 0.00 | 100 | 1017.0 |
| 20260506003504 | 77 | 47 | 2.6 | 6.1 | 0.00 | 0.00 | 0.00 | 100 | 1016.9 |
| 20260506003012 | 77 | 109 | 1.7 | 4.3 | 0.00 | 0.00 | 0.00 | 100 | 1016.9 |
| 20260506002504 | 77 | 76 | 0.9 | 4.3 | 0.00 | 0.00 | 0.00 | 100 | 1016.9 |
| 20260506002004 | 77 | 103 | 0.9 | 5.2 | 0.00 | 0.00 | 0.00 | 100 | 1016.9 |
| 20260506001504 | 77 | 148 | 2.6 | 7.0 | 0.00 | 0.00 | 0.00 | 100 | 1016.9 |
| 20260506001004 | 77 | 115 | 1.7 | 7.0 | 0.00 | 0.00 | 0.00 | 100 | 1016.8 |
| 20260506000504 | 77 | 124 | 2.6 | 7.8 | 0.00 | 0.00 | 0.00 | 100 | 1016.8 |
| 20260506000004 | 77 | 35 | 1.7 | 7.8 | 0.00 | 0.00 | 0.00 | 100 | 1016.8 |
| 20260505235503 | 77 | 107 | 1.7 | 7.8 | 0.00 | 0.00 | 0.00 | 100 | 1016.7 |
| 20260505235004 | 77 | 130 | 0.9 | 7.8 | 0.00 | 0.00 | 0.00 | 100 | 1016.7 |
| 20260505234503 | 77 | 36 | 3.5 | 7.8 | 0.00 | 0.00 | 0.00 | 100 | 1016.7 |
| 20260505234005 | 77 | 136 | 1.7 | 7.8 | 0.00 | 0.00 | 0.00 | 100 | 1016.7 |
| 20260505233502 | 77 | 122 | 3.5 | 7.0 | 0.00 | 0.00 | 0.00 | 100 | 1016.8 |
| 20260505233002 | 77 | 107 | 0.9 | 7.8 | 0.00 | 0.00 | 0.00 | 100 | 1016.8 |
| 20260505232502 | 78 | 119 | 1.7 | 7.8 | 0.00 | 0.00 | 0.00 | 100 | 1016.9 |
| 20260505232002 | 78 | 142 | 0.9 | 7.0 | 0.00 | 0.00 | 0.00 | 100 | 1016.8 |
| 20260505231503 | 78 | 360 | 1.7 | 7.0 | 0.00 | 0.00 | 0.00 | 100 | 1016.9 |
| 20260505231002 | 78 | 44 | 0.9 | 7.0 | 0.00 | 0.00 | 0.00 | 100 | 1016.9 |
| 20260505230502 | 78 | 106 | 1.7 | 7.0 | 0.00 | 0.00 | 0.00 | 100 | 1017.0 |
| 20260505230002 | 78 | 118 | 1.7 | 8.7 | 0.00 | 0.00 | 0.00 | 100 | 1017.1 |
| 20260505225504 | 78 | 122 | 1.7 | 8.7 | 0.00 | 0.00 | 0.00 | 100 | 1017.1 |
| 20260505225002 | 78 | 105 | 1.7 | 8.7 | 0.00 | 0.00 | 0.00 | 100 | 1017.2 |
| 20260505224502 | 79 | 15 | 2.6 | 8.7 | 0.00 | 0.00 | 0.00 | 100 | 1017.2 |
| 20260505224001 | 79 | 35 | 0.9 | 7.8 | 0.00 | 0.00 | 0.00 | 100 | 1017.2 |
| 20260505223500 | 79 | 63 | 2.6 | 8.7 | 0.00 | 0.00 | 0.00 | 100 | 1017.1 |
| 20260505223000 | 79 | 32 | 2.6 | 10.4 | 0.00 | 0.00 | 0.00 | 100 | 1017.0 |
| 20260505222602 | 78 | 132 | 1.7 | 10.4 | 0.00 | 0.00 | 0.00 | 100 | 1017.0 |
| 20260505222100 | 78 | 129 | 3.5 | 7.8 | 0.00 | 0.00 | 0.00 | 100 | 1017.0 |
| 20260505221602 | 79 | 109 | 3.5 | 9.6 | 0.00 | 0.00 | 0.00 | 100 | 1017.0 |
| 20260505221100 | 79 | 42 | 2.6 | 9.6 | 0.00 | 0.00 | 0.00 | 100 | 1017.0 |
| 20260505220600 | 80 | 38 | 1.7 | 8.7 | 0.00 | 0.00 | 0.00 | 100 | 1017.1 |
| 20260505215600 | 79 | 101 | 1.7 | 8.7 | 0.00 | 0.00 | 0.00 | 100 | 1016.9 |
| 20260505215100 | 80 | 23 | 2.6 | 8.7 | 0.00 | 0.00 | 0.00 | 100 | 1016.9 |
| 20260505214603 | 79 | 57 | 2.6 | 10.4 | 0.00 | 0.00 | 0.00 | 100 | 1016.9 |
| 20260505214100 | 79 | 146 | 2.6 | 10.4 | 0.00 | 0.00 | 0.00 | 100 | 1016.8 |
| 20260505213558 | 79 | 126 | 2.6 | 7.0 | 0.00 | 0.00 | 0.00 | 100 | 1016.7 |
| 20260505213105 | 80 | 49 | 2.6 | 7.0 | 0.00 | 0.00 | 0.00 | 100 | 1016.7 |
| 20260505212601 | 80 | 46 | 1.7 | 9.6 | 0.00 | 0.00 | 0.00 | 100 | 1016.9 |
| 20260505212059 | 79 | 5 | 2.6 | 7.8 | 0.00 | 0.00 | 0.00 | 100 | 1016.9 |
| 20260505211559 | 79 | 138 | 4.3 | 9.6 | 0.00 | 0.00 | 0.00 | 100 | 1016.7 |
| 20260505211058 | 80 | 97 | 2.6 | 9.6 | 0.00 | 0.00 | 0.00 | 100 | 1016.9 |
| 20260505210558 | 80 | 117 | 1.7 | 10.4 | 0.00 | 0.00 | 0.00 | 100 | 1016.9 |
| 20260505210058 | 80 | 142 | 2.6 | 10.4 | 0.00 | 0.00 | 0.00 | 100 | 1016.9 |
| 20260505205558 | 80 | 130 | 4.3 | 10.4 | 0.00 | 0.00 | 0.00 | 100 | 1016.8 |
| 20260505205058 | 80 | 339 | 2.6 | 9.6 | 0.00 | 0.00 | 0.00 | 100 | 1016.8 |
| 20260505204557 | 80 | 98 | 2.6 | 9.6 | 0.00 | 0.00 | 0.00 | 100 | 1016.8 |
| 20260505204056 | 81 | 148 | 2.6 | 8.7 | 0.00 | 0.00 | 0.00 | 100 | 1016.8 |
| 20260505203556 | 81 | 24 | 1.7 | 9.6 | 0.00 | 0.00 | 0.00 | 100 | 1016.8 |
| 20260505203104 | 80 | 12 | 2.6 | 9.6 | 0.00 | 0.00 | 0.00 | 100 | 1016.9 |
| 20260505202556 | 81 | 149 | 0.9 | 7.8 | 0.00 | 0.00 | 0.00 | 100 | 1016.9 |
| 20260505202058 | 80 | 116 | 3.5 | 9.6 | 0.00 | 0.00 | 0.00 | 100 | 1016.9 |
| 20260505201557 | 81 | 17 | 3.5 | 11.3 | 0.00 | 0.00 | 0.00 | 100 | 1016.8 |
| 20260505201055 | 81 | 43 | 3.5 | 11.3 | 0.00 | 0.00 | 0.00 | 100 | 1016.8 |
| 20260505200555 | 81 | 71 | 3.5 | 9.6 | 0.00 | 0.00 | 0.00 | 100 | 1016.9 |
| 20260505200057 | 80 | 144 | 3.5 | 8.7 | 0.00 | 0.00 | 0.00 | 100 | 1017.0 |
| 20260505195558 | 80 | 102 | 2.6 | 11.3 | 0.00 | 0.00 | 0.00 | 100 | 1017.0 |
| 20260505195055 | 81 | 88 | 4.3 | 11.3 | 0.00 | 0.00 | 0.00 | 100 | 1017.1 |
| 20260505194555 | 81 | 132 | 3.5 | 8.7 | 0.00 | 0.00 | 0.00 | 100 | 1017.1 |
| 20260505194054 | 81 | 110 | 1.7 | 8.7 | 0.00 | 0.00 | 0.00 | 100 | 1017.2 |
| 20260505193555 | 80 | 163 | 2.6 | 8.7 | 0.00 | 0.00 | 0.00 | 100 | 1017.2 |
| 20260505193153 | 80 | 113 | 3.5 | 7.8 | 0.00 | 0.00 | 0.00 | 100 | 1017.3 |
| 20260505192553 | 81 | 67 | 2.6 | 8.7 | 0.00 | 0.00 | 0.00 | 100 | 1017.3 |
| 20260505192054 | 81 | 73 | 2.6 | 8.7 | 0.00 | 0.00 | 0.00 | 100 | 1017.3 |
| 20260505191609 | 81 | 65 | 2.6 | 9.6 | 0.00 | 0.00 | 0.00 | 100 | 1017.2 |
| 20260505191053 | 80 | 96 | 5.2 | 9.6 | 0.00 | 0.00 | 0.00 | 100 | 1017.4 |
| 20260505190552 | 81 | 90 | 2.6 | 7.8 | 0.00 | 0.00 | 0.00 | 100 | 1017.4 |
| 20260505190055 | 80 | 135 | 2.6 | 7.8 | 0.00 | 0.00 | 0.00 | 100 | 1017.5 |
| 20260505185555 | 80 | 121 | 2.6 | 7.8 | 0.00 | 0.00 | 0.00 | 100 | 1017.7 |
| 20260505185052 | 81 | 39 | 1.7 | 8.7 | 0.00 | 0.00 | 0.00 | 100 | 1017.7 |
| 20260505184552 | 81 | 5 | 3.5 | 8.7 | 0.00 | 0.00 | 0.00 | 100 | 1017.7 |
| 20260505184052 | 81 | 123 | 1.7 | 11.3 | 0.00 | 0.00 | 0.00 | 100 | 1017.8 |
| 20260505183550 | 81 | 126 | 2.6 | 11.3 | 0.00 | 0.00 | 0.00 | 100 | 1017.7 |
| 20260505183051 | 80 | 121 | 3.5 | 8.7 | 0.00 | 0.00 | 0.00 | 100 | 1017.7 |
| 20260505182551 | 80 | 134 | 3.5 | 9.6 | 0.00 | 0.00 | 0.00 | 100 | 1017.8 |
| 20260505182056 | 80 | 118 | 2.6 | 9.6 | 0.00 | 0.00 | 0.00 | 100 | 1017.8 |
| 20260505181552 | 81 | 177 | 1.7 | 7.8 | 0.00 | 0.00 | 0.00 | 100 | 1017.8 |
| 20260505181051 | 81 | 94 | 2.6 | 11.3 | 0.00 | 0.00 | 0.00 | 100 | 1017.9 |
| 20260505180550 | 81 | 140 | 5.2 | 11.3 | 0.00 | 0.00 | 0.00 | 100 | 1017.9 |
| 20260505175554 | 80 | 76 | 3.5 | 11.3 | 0.00 | 0.00 | 0.00 | 100 | 1017.9 |
| 20260505175050 | 81 | 102 | 3.5 | 9.6 | 0.00 | 0.00 | 0.00 | 100 | 1018.1 |
| 20260505174555 | 80 | 107 | 3.5 | 9.6 | 0.00 | 0.00 | 0.00 | 100 | 1017.9 |
| 20260505174049 | 80 | 130 | 3.5 | 9.6 | 0.00 | 0.00 | 0.00 | 100 | 1017.9 |
| 20260505173549 | 81 | 146 | 4.3 | 10.4 | 0.00 | 0.00 | 0.00 | 100 | 1018.2 |
| 20260505173049 | 81 | 159 | 3.5 | 10.4 | 0.00 | 0.00 | 0.00 | 100 | 1018.1 |
| 20260505172547 | 81 | 75 | 2.6 | 10.4 | 0.00 | 0.00 | 0.00 | 100 | 1018.2 |
| 20260505172047 | 81 | 89 | 3.5 | 8.7 | 0.00 | 0.00 | 0.00 | 100 | 1018.2 |
| 20260505171550 | 80 | 105 | 2.6 | 7.8 | 0.00 | 0.00 | 0.00 | 100 | 1018.2 |
| 20260505171047 | 80 | 159 | 2.6 | 10.4 | 0.00 | 0.00 | 0.00 | 100 | 1018.3 |
| 20260505170547 | 79 | 90 | 4.3 | 11.3 | 0.00 | 0.00 | 0.00 | 100 | 1018.3 |
| 20260505170048 | 80 | 133 | 3.5 | 9.6 | 0.00 | 0.00 | 0.00 | 100 | 1018.3 |
| 20260505165548 | 80 | 165 | 3.5 | 9.6 | 0.00 | 0.00 | 0.00 | 100 | 1018.1 |
| 20260505165047 | 80 | 121 | 4.3 | 12.2 | 0.00 | 0.00 | 0.00 | 100 | 1018.1 |
| 20260505164549 | 81 | 95 | 3.5 | 12.2 | 0.00 | 0.00 | 0.00 | 100 | 1018.1 |
| 20260505164046 | 81 | 102 | 3.5 | 10.4 | 0.00 | 0.00 | 0.00 | 100 | 1018.3 |
| 20260505163546 | 80 | 135 | 3.5 | 10.4 | 0.00 | 0.00 | 0.00 | 100 | 1018.2 |
| 20260505163046 | 80 | 136 | 5.2 | 9.6 | 0.00 | 0.00 | 0.00 | 100 | 1018.3 |
| 20260505162546 | 80 | 54 | 3.5 | 9.6 | 0.00 | 0.00 | 0.00 | 100 | 1018.2 |
| 20260505162047 | 80 | 135 | 4.3 | 9.6 | 0.00 | 0.00 | 0.00 | 100 | 1018.2 |
| 20260505161551 | 81 | 122 | 2.6 | 7.8 | 0.00 | 0.00 | 0.00 | 100 | 1018.2 |
| 20260505161044 | 80 | 96 | 2.6 | 7.8 | 0.00 | 0.00 | 0.00 | 100 | 1018.2 |
| 20260505160544 | 80 | 169 | 2.6 | 11.3 | 0.00 | 0.00 | 0.00 | 100 | 1018.3 |
| 20260505153041 | 80 | 126 | 2.6 | 10.4 | 0.00 | 0.00 | 0.00 | 100 | 1018.2 |
| 20260505152540 | 80 | 36 | 3.5 | 10.4 | 0.00 | 0.00 | 0.00 | 100 | 1018.2 |
| 20260505152045 | 80 | 57 | 3.5 | 8.7 | 0.00 | 0.00 | 0.00 | 100 | 1018.2 |
| 20260505151539 | 79 | 15 | 2.6 | 9.6 | 0.00 | 0.00 | 0.00 | 100 | 1018.1 |
| 20260505151043 | 79 | 109 | 3.5 | 9.6 | 0.00 | 0.00 | 0.00 | 100 | 1018.1 |
| 20260505150538 | 78 | 119 | 5.2 | 9.6 | 0.00 | 0.00 | 0.00 | 100 | 1018.1 |